Terminal Aerodrome Forecast
Issued by NWS

Home | Current Version | Previous Version | Text Only | Print | Product List | Glossary On
Versions: 1 2 3 4 5 6 7 8 9 10 11 12 13 14 15 16 17 18 19 20 21 22 23 24 25 26 27 28 29 30 31 32 33 34
994
FTUS43 KGRB 261720
TAFRHI
TAF
KRHI 261720Z 2618/2718 24009KT P6SM VCSH BKN013 OVC020
      TEMPO 2618/2621 5SM -SHRA BR SCT013 OVC020
     FM262100 26009KT P6SM SCT008 OVC012
     FM270400 28008KT P6SM SCT006 OVC012
      TEMPO 2709/2712 BKN006
     FM271400 29010KT P6SM SCT015 OVC040=

USA.gov is the U.S. government's official web portal to all federal, state and local government web resources and services.